Terminal Aerodrome Forecast
Issued by NWS Los Angeles, CA

Home | Current Version | Previous Version | Text Only | Print | Product List | Glossary On
Versions: 1 2 3 4 5 6 7 8 9 10 11 12 13 14 15 16 17
000
FTUS46 KLOX 270139 AAA
TAFSMX
TAF AMD
KSMX 270139Z 2702/2724 32008KT P6SM OVC025
     FM270300 32008KT P6SM BKN025 BKN040
     FM270600 VRB03KT P6SM VCSH SCT025 OVC040
     FM271300 VRB03KT P6SM BKN030
     FM271900 32007KT P6SM SCT080
     FM272200 32014G20KT P6SM SCT100=

USA.gov is the U.S. government's official web portal to all federal, state and local government web resources and services.